createdAt,value
2022-11-23T00:02:21.767Z,4.63
2022-11-23T00:04:50.156Z,4.57
2022-11-23T00:07:17.362Z,4.80
2022-11-23T00:09:44.405Z,4.47
2022-11-23T00:12:11.795Z,5.13
2022-11-23T00:14:38.757Z,4.80
2022-11-23T00:17:05.705Z,4.53
2022-11-23T00:19:33.003Z,4.93
2022-11-23T00:22:02.662Z,4.93
2022-11-23T00:27:59.737Z,4.70
2022-11-23T00:30:29.268Z,4.30
2022-11-23T00:32:57.187Z,4.90
2022-11-23T00:35:28.294Z,4.50
2022-11-23T00:38:07.944Z,3.97
2022-11-23T00:40:34.901Z,4.67
2022-11-23T00:43:01.860Z,4.37
2022-11-23T00:45:29.816Z,4.27
2022-11-23T00:47:56.794Z,4.53
2022-11-23T00:50:23.780Z,3.93
2022-11-23T00:52:50.765Z,4.27
2022-11-23T00:55:19.133Z,4.07
2022-11-23T00:57:46.050Z,4.43
2022-11-23T01:00:13.887Z,3.63
2022-11-23T01:02:40.843Z,4.20
2022-11-23T01:05:08.635Z,4.23
2022-11-23T01:07:35.602Z,4.00
2022-11-23T01:10:02.601Z,4.27
2022-11-23T01:12:30.975Z,4.23
2022-11-23T01:14:57.975Z,4.33
2022-11-23T01:17:24.916Z,4.40
2022-11-23T01:19:51.858Z,4.00
2022-11-23T01:22:20.134Z,3.80
2022-11-23T01:24:47.143Z,3.90
2022-11-23T01:27:14.089Z,3.33
2022-11-23T01:29:42.359Z,3.50
2022-11-23T01:32:09.320Z,3.90
2022-11-23T01:34:36.407Z,3.50
2022-11-23T01:37:03.336Z,3.50
2022-11-23T01:39:30.631Z,3.73
2022-11-23T01:41:57.738Z,4.27
2022-11-23T01:44:28.869Z,3.70
2022-11-23T01:46:59.153Z,3.50
2022-11-23T01:49:33.865Z,3.73
2022-11-23T01:52:08.967Z,3.40
2022-11-23T01:54:44.829Z,2.70
2022-11-23T01:57:18.832Z,3.50
2022-11-23T01:59:47.732Z,3.03
2022-11-23T02:02:17.246Z,3.47
2022-11-23T02:04:49.599Z,3.00
2022-11-23T02:07:19.911Z,3.07
2022-11-23T02:09:55.863Z,3.07
2022-11-23T02:12:23.116Z,3.20
2022-11-23T02:14:51.127Z,3.13
2022-11-23T02:17:21.890Z,3.23
2022-11-23T02:20:04.185Z,3.07
2022-11-23T02:22:47.372Z,2.87
2022-11-23T02:25:27.725Z,2.63
2022-11-23T02:27:57.105Z,2.97
2022-11-23T02:30:24.416Z,3.10
2022-11-23T02:32:51.406Z,2.90
2022-11-23T02:35:18.347Z,2.60
2022-11-23T02:37:45.654Z,2.73
2022-11-23T02:40:25.324Z,2.70
2022-11-23T02:42:52.582Z,2.77
2022-11-23T02:45:31.296Z,2.90
2022-11-23T02:47:58.242Z,2.40
2022-11-23T02:50:25.238Z,2.43
2022-11-23T02:52:52.240Z,2.97
2022-11-23T02:55:19.219Z,3.00
2022-11-23T02:57:46.242Z,2.70
2022-11-23T03:00:14.918Z,2.47
2022-11-23T03:02:43.225Z,2.37
2022-11-23T03:05:10.212Z,2.50
2022-11-23T03:07:43.180Z,2.73
2022-11-23T03:10:10.923Z,3.27
2022-11-23T03:12:37.873Z,2.73
2022-11-23T03:15:06.331Z,2.90
2022-11-23T03:17:33.460Z,2.70
2022-11-23T03:20:01.812Z,3.03
2022-11-23T03:22:28.825Z,2.90
2022-11-23T03:24:57.339Z,2.30
2022-11-23T03:27:24.320Z,2.93
2022-11-23T03:29:51.250Z,2.47
2022-11-23T03:32:18.210Z,2.70
2022-11-23T03:34:45.162Z,3.03
2022-11-23T03:37:13.428Z,2.53
2022-11-23T03:39:45.793Z,2.53
2022-11-23T03:42:14.224Z,2.53
2022-11-23T03:44:41.203Z,2.40
2022-11-23T03:47:08.212Z,2.80
2022-11-23T03:49:35.155Z,2.03
2022-11-23T03:52:02.131Z,2.63
2022-11-23T03:54:30.394Z,2.63
2022-11-23T03:56:57.363Z,2.43
2022-11-23T03:59:24.369Z,2.00
2022-11-23T04:01:51.299Z,2.73
2022-11-23T04:04:21.017Z,2.30
2022-11-23T04:06:48.009Z,2.47
2022-11-23T04:09:15.508Z,2.07
2022-11-23T04:11:43.816Z,2.70
2022-11-23T04:14:10.860Z,2.30
2022-11-23T04:16:37.875Z,2.57
2022-11-23T04:19:04.865Z,2.00
2022-11-23T04:21:31.807Z,2.43
2022-11-23T04:23:58.950Z,2.20
2022-11-23T04:26:25.909Z,2.03
2022-11-23T04:28:54.267Z,2.20
2022-11-23T04:31:21.333Z,2.20
2022-11-23T04:33:48.356Z,2.17
2022-11-23T04:36:15.330Z,1.77
2022-11-23T04:38:42.295Z,2.10
2022-11-23T04:41:10.156Z,2.03
2022-11-23T04:43:37.074Z,2.67
2022-11-23T04:46:05.562Z,2.70
2022-11-23T04:48:32.583Z,2.40
2022-11-23T04:50:59.576Z,2.33
2022-11-23T04:53:26.574Z,2.30
2022-11-23T04:55:53.610Z,1.57
2022-11-23T04:58:20.654Z,2.17
2022-11-23T05:00:50.906Z,2.00
2022-11-23T05:03:19.314Z,2.10
2022-11-23T05:05:46.562Z,2.10
2022-11-23T05:08:13.571Z,1.87
2022-11-23T05:10:40.634Z,2.07
2022-11-23T05:13:07.652Z,1.90
2022-11-23T05:15:34.688Z,2.07
2022-11-23T05:18:02.515Z,1.93
2022-11-23T05:20:30.852Z,2.23
2022-11-23T05:22:57.900Z,2.57
2022-11-23T05:25:25.404Z,1.90
2022-11-23T05:27:52.788Z,2.03
2022-11-23T05:30:23.639Z,2.20
2022-11-23T05:32:50.874Z,1.93
2022-11-23T05:35:18.115Z,2.40
2022-11-23T05:37:46.405Z,2.17
2022-11-23T05:40:13.954Z,1.90
2022-11-23T05:42:41.006Z,1.83
2022-11-23T05:45:11.765Z,2.40
2022-11-23T05:47:39.036Z,2.03
2022-11-23T05:50:07.724Z,2.07
2022-11-23T05:52:34.696Z,2.10
2022-11-23T05:55:03.471Z,2.07
2022-11-23T05:57:30.459Z,1.83
2022-11-23T05:59:57.431Z,2.10
2022-11-23T06:02:24.396Z,2.80
2022-11-23T06:04:51.343Z,2.00
2022-11-23T06:07:18.303Z,2.27
2022-11-23T06:09:45.315Z,1.90
2022-11-23T06:12:13.903Z,1.90
2022-11-23T06:14:40.928Z,2.37
2022-11-23T06:17:07.866Z,2.00
2022-11-23T06:19:35.260Z,2.60
2022-11-23T06:22:02.330Z,2.23
2022-11-23T06:24:30.771Z,2.20
2022-11-23T06:26:57.757Z,2.17
2022-11-23T06:29:26.403Z,2.20
2022-11-23T06:31:54.367Z,2.20
2022-11-23T06:34:21.428Z,2.10
2022-11-23T06:36:48.356Z,2.23
2022-11-23T06:39:17.472Z,2.17
2022-11-23T06:41:44.445Z,2.30
2022-11-23T06:44:11.407Z,2.50
2022-11-23T06:46:39.659Z,2.13
2022-11-23T06:49:06.936Z,2.13
2022-11-23T06:51:33.931Z,2.37
2022-11-23T06:54:00.914Z,2.23
2022-11-23T06:56:27.926Z,2.23
2022-11-23T06:58:54.931Z,2.73
2022-11-23T07:01:22.125Z,2.37
2022-11-23T07:03:50.603Z,2.23
2022-11-23T07:06:18.005Z,2.60
2022-11-23T07:08:45.583Z,2.93
2022-11-23T07:11:12.877Z,2.70
2022-11-23T07:13:40.145Z,2.70
2022-11-23T07:16:07.924Z,2.73
2022-11-23T07:18:34.970Z,3.00
2022-11-23T07:21:03.533Z,2.83
2022-11-23T07:23:30.566Z,2.43
2022-11-23T07:25:57.598Z,2.37
2022-11-23T07:28:24.609Z,2.80
2022-11-23T07:30:54.404Z,2.47
2022-11-23T07:33:21.383Z,2.80
2022-11-23T07:35:48.528Z,2.27
2022-11-23T07:38:17.031Z,2.10
2022-11-23T07:40:44.157Z,2.37
2022-11-23T07:43:11.184Z,2.63
2022-11-23T07:45:39.425Z,2.50
2022-11-23T07:48:08.951Z,2.47
2022-11-23T07:50:42.997Z,2.40
2022-11-23T07:53:10.742Z,2.60
2022-11-23T07:55:39.156Z,2.50
2022-11-23T07:58:06.462Z,1.93
2022-11-23T08:00:33.526Z,2.43
2022-11-23T08:05:48.587Z,2.20
2022-11-23T08:08:16.343Z,3.03
2022-11-23T08:10:49.902Z,2.00
2022-11-23T08:13:20.242Z,2.33
2022-11-23T08:15:53.297Z,2.50
2022-11-23T08:18:20.731Z,2.23
2022-11-23T08:20:48.327Z,2.67
2022-11-23T08:23:18.578Z,2.47
2022-11-23T08:25:47.588Z,2.33
2022-11-23T08:28:15.562Z,2.10
2022-11-23T08:30:42.632Z,2.40
2022-11-23T08:33:10.359Z,2.70
2022-11-23T08:35:39.804Z,2.67
2022-11-23T08:38:09.170Z,3.97
2022-11-23T08:40:37.067Z,2.57
2022-11-23T08:43:06.142Z,2.80
2022-11-23T08:45:33.641Z,2.20
2022-11-23T08:48:01.497Z,2.13
2022-11-23T08:50:29.419Z,2.20
2022-11-23T08:52:56.820Z,2.53
2022-11-23T08:55:24.122Z,2.30
2022-11-23T08:57:54.313Z,2.20
2022-11-23T09:00:23.040Z,2.70
2022-11-23T09:02:50.355Z,2.87
2022-11-23T09:05:17.607Z,2.00
2022-11-23T09:07:45.026Z,2.87
2022-11-23T09:10:17.911Z,2.33
2022-11-23T09:12:46.415Z,2.50
2022-11-23T09:15:13.563Z,2.50
2022-11-23T09:17:42.776Z,2.80
2022-11-23T09:20:11.393Z,2.70
2022-11-23T09:22:39.114Z,2.67
2022-11-23T09:25:08.669Z,2.50
2022-11-23T09:27:36.275Z,2.30
2022-11-23T09:30:04.893Z,2.53
2022-11-23T09:32:33.048Z,2.37
2022-11-23T09:35:01.896Z,2.50
2022-11-23T09:37:29.388Z,2.80
2022-11-23T09:39:56.568Z,2.83
2022-11-23T09:43:08.144Z,2.30
2022-11-23T09:45:46.957Z,2.50
2022-11-23T09:48:48.847Z,2.80
2022-11-23T09:51:20.860Z,3.17
2022-11-23T09:53:55.084Z,2.83
2022-11-23T09:56:30.281Z,2.60
2022-11-23T09:59:01.185Z,2.63
2022-11-23T10:01:30.504Z,2.53
2022-11-23T10:03:58.904Z,2.67
2022-11-23T10:06:31.220Z,3.00
2022-11-23T10:09:18.141Z,2.80
2022-11-23T10:12:14.245Z,2.63
2022-11-23T10:15:01.644Z,3.03
2022-11-23T10:17:50.915Z,3.30
2022-11-23T10:20:37.359Z,2.70
2022-11-23T10:23:17.443Z,3.37
2022-11-23T10:25:50.219Z,2.53
2022-11-23T10:28:21.052Z,2.30
2022-11-23T10:31:01.157Z,2.20
2022-11-23T10:33:34.466Z,2.80
2022-11-23T10:36:01.889Z,2.93
2022-11-23T10:38:34.159Z,2.40
2022-11-23T10:41:06.887Z,2.37
2022-11-23T10:43:45.244Z,2.50
2022-11-23T10:46:32.379Z,2.03
2022-11-23T10:49:18.865Z,2.50
2022-11-23T10:51:53.472Z,2.47
2022-11-23T10:54:27.635Z,2.43
2022-11-23T10:56:56.593Z,2.40
2022-11-23T10:59:36.850Z,2.27
2022-11-23T11:02:18.142Z,2.73
2022-11-23T11:04:46.814Z,2.40
2022-11-23T11:07:28.582Z,2.33
2022-11-23T11:09:59.673Z,2.33
2022-11-23T11:12:29.404Z,2.67
2022-11-23T11:15:11.264Z,2.53
2022-11-23T11:17:41.997Z,2.47
2022-11-23T11:20:32.877Z,2.30
2022-11-23T11:23:04.055Z,2.43
2022-11-23T11:25:37.975Z,2.90
2022-11-23T11:28:25.318Z,2.57
2022-11-23T11:31:11.075Z,2.50
2022-11-23T11:33:50.925Z,2.57
2022-11-23T11:36:18.802Z,3.27
2022-11-23T11:39:15.387Z,3.27
2022-11-23T11:41:44.680Z,3.33
2022-11-23T11:44:20.913Z,2.57
2022-11-23T11:46:58.015Z,2.43
2022-11-23T11:49:31.286Z,2.60
2022-11-23T11:52:08.113Z,2.40
2022-11-23T11:54:44.233Z,3.00
2022-11-23T11:57:21.032Z,2.50
2022-11-23T11:59:52.989Z,2.67
2022-11-23T12:02:26.759Z,2.30
2022-11-23T12:05:07.667Z,3.03
2022-11-23T12:07:42.509Z,2.43
2022-11-23T12:10:18.628Z,2.43
2022-11-23T12:12:50.059Z,2.23
2022-11-23T12:15:47.919Z,2.50
2022-11-23T12:18:32.934Z,2.63
2022-11-23T12:21:05.737Z,2.60
2022-11-23T12:23:59.173Z,1.83
2022-11-23T12:26:42.419Z,2.50
2022-11-23T12:29:46.066Z,2.60
2022-11-23T12:32:30.859Z,1.87
2022-11-23T12:35:24.582Z,1.97
2022-11-23T12:38:12.169Z,2.20
2022-11-23T12:40:58.746Z,2.40
2022-11-23T12:43:37.487Z,2.10
2022-11-23T12:46:14.899Z,2.17
2022-11-23T12:49:01.281Z,2.07
2022-11-23T12:51:41.029Z,2.07
2022-11-23T12:54:39.816Z,2.03
2022-11-23T12:57:18.353Z,2.40
2022-11-23T12:59:50.809Z,2.30
2022-11-23T13:03:02.249Z,2.30
2022-11-23T13:06:24.796Z,1.50
2022-11-23T13:09:34.122Z,2.10
2022-11-23T13:12:25.643Z,1.77
2022-11-23T13:15:10.680Z,2.08
2022-11-23T13:17:53.283Z,1.87
2022-11-23T13:20:42.164Z,2.00
2022-11-23T13:23:10.251Z,2.03
2022-11-23T13:25:37.819Z,1.73
2022-11-23T13:28:29.220Z,1.97
2022-11-23T13:31:26.347Z,1.97
2022-11-23T13:33:58.332Z,1.50
2022-11-23T13:37:11.705Z,2.10
2022-11-23T13:40:20.953Z,1.83
2022-11-23T13:42:50.184Z,2.00
2022-11-23T13:45:33.861Z,1.50
2022-11-23T13:48:48.839Z,1.70
2022-11-23T13:51:09.614Z,1.97
2022-11-23T13:53:41.057Z,1.40
2022-11-23T13:56:27.434Z,2.00
2022-11-23T13:58:56.621Z,1.57
2022-11-23T14:01:59.375Z,1.73
2022-11-23T14:04:28.330Z,2.30
2022-11-23T14:07:02.236Z,1.93
2022-11-23T14:09:36.915Z,1.97
2022-11-23T14:12:17.097Z,1.90
2022-11-23T14:15:01.076Z,2.30
2022-11-23T14:18:14.392Z,1.60
2022-11-23T14:21:07.567Z,2.10
2022-11-23T14:24:21.158Z,2.00
2022-11-23T14:27:30.893Z,2.30
2022-11-23T14:30:28.906Z,5.35
2022-11-23T14:33:27.182Z,2.90
2022-11-23T14:36:10.000Z,3.03
2022-11-23T14:39:32.884Z,2.10
2022-11-23T14:42:10.285Z,2.20
2022-11-23T14:44:42.393Z,2.17
2022-11-23T14:47:12.107Z,2.30
2022-11-23T14:49:50.805Z,2.13
2022-11-23T14:52:22.837Z,2.30
2022-11-23T14:54:55.118Z,2.00
2022-11-23T14:57:39.436Z,2.83
2022-11-23T15:00:24.187Z,2.80
2022-11-23T15:02:53.386Z,2.50
2022-11-23T15:05:28.331Z,1.90
2022-11-23T15:08:02.344Z,2.20
2022-11-23T15:10:42.584Z,2.63
2022-11-23T15:13:21.853Z,2.90
2022-11-23T15:15:52.427Z,2.57
2022-11-23T15:18:34.545Z,2.07
2022-11-23T15:21:07.849Z,2.80
2022-11-23T15:23:39.893Z,2.70
2022-11-23T15:26:34.740Z,3.23
2022-11-23T15:29:04.846Z,3.27
2022-11-23T15:31:36.085Z,2.70
2022-11-23T15:34:13.853Z,2.53
2022-11-23T15:36:42.555Z,2.70
2022-11-23T15:39:18.106Z,2.53
2022-11-23T15:41:49.444Z,2.40
2022-11-23T15:44:24.682Z,2.53
2022-11-23T15:46:54.487Z,3.03
2022-11-23T15:49:23.941Z,2.37
2022-11-23T15:51:53.212Z,2.23
2022-11-23T15:54:25.589Z,2.17
2022-11-23T15:56:58.474Z,2.27
2022-11-23T15:59:34.958Z,2.13
2022-11-23T16:02:07.115Z,2.33
2022-11-23T16:04:38.818Z,1.87
2022-11-23T16:07:19.001Z,2.37
2022-11-23T16:09:51.892Z,2.60
2022-11-23T16:12:27.945Z,1.93
2022-11-23T16:14:57.386Z,2.40
2022-11-23T16:17:26.661Z,2.13
2022-11-23T16:19:55.961Z,2.43
2022-11-23T16:22:29.603Z,2.33
2022-11-23T16:25:07.881Z,3.30
2022-11-23T16:27:37.155Z,2.17
2022-11-23T16:30:05.875Z,3.00
2022-11-23T16:32:32.891Z,2.90
2022-11-23T16:35:16.365Z,2.50
2022-11-23T16:37:43.567Z,3.53
2022-11-23T16:40:12.051Z,3.00
2022-11-23T16:42:40.575Z,2.30
2022-11-23T16:45:09.742Z,2.30
2022-11-23T16:47:53.086Z,2.57
2022-11-23T16:50:20.142Z,2.60
2022-11-23T16:52:47.445Z,2.87
2022-11-23T16:55:14.491Z,2.23
2022-11-23T16:57:44.085Z,2.93
2022-11-23T17:00:16.888Z,2.93
2022-11-23T17:02:44.060Z,3.27
2022-11-23T17:05:15.686Z,3.17
2022-11-23T17:07:43.195Z,3.30
2022-11-23T17:10:10.615Z,3.20
2022-11-23T17:12:39.294Z,2.95
2022-11-23T17:15:12.588Z,2.60
2022-11-23T17:17:39.589Z,3.03
2022-11-23T17:20:12.018Z,3.53
2022-11-23T17:22:39.148Z,3.57
2022-11-23T17:25:11.677Z,3.10
2022-11-23T17:27:43.600Z,3.03
2022-11-23T17:30:15.557Z,3.30
2022-11-23T17:32:42.804Z,3.30
2022-11-23T17:35:10.014Z,3.83
2022-11-23T17:37:37.363Z,3.57
2022-11-23T17:40:12.902Z,3.17
2022-11-23T17:42:39.839Z,3.80
2022-11-23T17:45:07.912Z,3.13
2022-11-23T17:47:38.033Z,3.20
2022-11-23T17:50:07.295Z,3.45
2022-11-23T17:52:34.242Z,3.73
2022-11-23T17:55:01.193Z,3.13
2022-11-23T17:57:28.195Z,3.30
2022-11-23T17:59:58.225Z,3.30
2022-11-23T18:02:27.955Z,3.60
2022-11-23T18:04:56.280Z,3.50
2022-11-23T18:07:23.270Z,3.27
2022-11-23T18:09:50.375Z,3.13
2022-11-23T18:12:17.671Z,3.10
2022-11-23T18:14:44.579Z,3.23
2022-11-23T18:17:11.578Z,3.77
2022-11-23T18:19:38.615Z,4.23
2022-11-23T18:22:06.990Z,3.87
2022-11-23T18:24:33.942Z,4.03
2022-11-23T18:27:00.883Z,3.50
2022-11-23T18:29:27.949Z,3.87
2022-11-23T18:31:54.867Z,3.20
2022-11-23T18:34:21.791Z,3.93
2022-11-23T18:36:48.720Z,3.70
2022-11-23T18:39:17.001Z,3.00
2022-11-23T18:41:43.932Z,3.60
2022-11-23T18:44:10.867Z,3.50
2022-11-23T18:46:37.901Z,3.50
2022-11-23T18:49:05.140Z,3.73
2022-11-23T18:51:32.170Z,3.97
2022-11-23T18:53:59.240Z,4.50
2022-11-23T18:56:27.536Z,3.63
2022-11-23T18:58:54.451Z,4.03
2022-11-23T19:01:23.757Z,3.90
2022-11-23T19:03:53.363Z,4.27
2022-11-23T19:06:22.859Z,4.07
2022-11-23T19:08:57.319Z,4.30
2022-11-23T19:11:28.479Z,4.00
2022-11-23T19:13:58.183Z,3.30
2022-11-23T19:16:29.885Z,3.50
2022-11-23T19:18:59.184Z,3.80
2022-11-23T19:21:28.530Z,3.63
2022-11-23T19:23:57.727Z,3.43
2022-11-23T19:26:27.689Z,4.03
2022-11-23T19:28:56.056Z,3.30
2022-11-23T19:31:26.461Z,3.80
2022-11-23T19:33:58.399Z,3.83
2022-11-23T19:36:25.968Z,3.60
2022-11-23T19:38:55.152Z,3.97
2022-11-23T19:41:28.188Z,3.67
2022-11-23T19:44:00.859Z,3.60
2022-11-23T19:46:29.180Z,3.80
2022-11-23T19:48:57.308Z,3.70
2022-11-23T19:51:26.233Z,3.10
2022-11-23T19:53:57.497Z,3.73
2022-11-23T19:56:27.459Z,3.50
2022-11-23T19:58:56.779Z,3.53
2022-11-23T20:01:28.071Z,5.87
2022-11-23T20:03:59.669Z,4.67
2022-11-23T20:06:30.947Z,3.80
2022-11-23T20:09:00.513Z,4.03
2022-11-23T20:11:30.292Z,3.40
2022-11-23T20:13:58.718Z,3.53
2022-11-23T20:16:31.110Z,3.30
2022-11-23T20:19:01.291Z,4.30
2022-11-23T20:21:30.115Z,4.32
2022-11-23T20:24:04.486Z,3.80
2022-11-23T20:26:33.977Z,3.37
2022-11-23T20:29:01.082Z,3.30
2022-11-23T20:31:32.378Z,3.47
2022-11-23T20:34:00.251Z,3.30
2022-11-23T20:36:29.888Z,2.97
2022-11-23T20:39:00.514Z,3.63
2022-11-23T20:41:30.936Z,3.50
2022-11-23T20:44:00.571Z,3.40
2022-11-23T20:47:00.524Z,3.20
2022-11-23T20:49:18.623Z,3.37
2022-11-23T20:51:45.630Z,3.03
2022-11-23T20:54:12.770Z,2.80
2022-11-23T20:56:39.739Z,3.67
2022-11-23T20:59:06.951Z,2.97
2022-11-23T21:01:35.273Z,3.37
2022-11-23T21:04:02.498Z,3.60
2022-11-23T21:06:31.448Z,3.80
2022-11-23T21:09:01.739Z,3.37
2022-11-23T21:11:48.174Z,2.90
2022-11-23T21:14:18.606Z,2.90
2022-11-23T21:16:52.958Z,3.37
2022-11-23T21:19:22.500Z,3.10
2022-11-23T21:21:49.888Z,2.80
2022-11-23T21:24:17.215Z,3.87
2022-11-23T21:26:44.631Z,3.13
2022-11-23T21:29:11.654Z,3.90
2022-11-23T21:31:42.200Z,3.93
2022-11-23T21:34:18.293Z,4.17
2022-11-23T21:36:45.850Z,3.20
2022-11-23T21:39:14.090Z,3.90
2022-11-23T21:41:41.377Z,3.53
2022-11-23T21:44:10.381Z,3.20
2022-11-23T21:46:39.829Z,3.70
2022-11-23T21:49:07.733Z,3.50
2022-11-23T21:51:37.737Z,3.97
2022-11-23T21:54:07.413Z,2.77
2022-11-23T21:56:34.462Z,3.03
2022-11-23T21:59:01.916Z,3.27
2022-11-23T22:01:31.602Z,3.07
2022-11-23T22:04:02.395Z,3.57
2022-11-23T22:06:30.384Z,3.03
2022-11-23T22:09:02.164Z,3.47
2022-11-23T22:11:31.886Z,2.60
2022-11-23T22:14:01.459Z,2.67
2022-11-23T22:16:30.983Z,3.20
2022-11-23T22:18:59.044Z,2.83
2022-11-23T22:21:31.896Z,2.97
2022-11-23T22:24:01.275Z,3.40
2022-11-23T22:26:28.597Z,2.90
2022-11-23T22:28:56.811Z,3.10
2022-11-23T22:31:25.511Z,2.60
2022-11-23T22:33:53.379Z,2.93
2022-11-23T22:36:23.123Z,2.50
2022-11-23T22:39:01.077Z,3.13
2022-11-23T22:41:39.120Z,3.10
2022-11-23T22:44:08.969Z,2.80
2022-11-23T22:46:37.214Z,2.30
2022-11-23T22:49:04.901Z,2.90
2022-11-23T22:51:32.291Z,2.70
2022-11-23T22:54:01.032Z,2.90
2022-11-23T22:56:30.987Z,3.40
2022-11-23T22:58:58.809Z,2.60
2022-11-23T23:01:28.383Z,3.07
2022-11-23T23:03:57.999Z,2.47
2022-11-23T23:06:28.273Z,2.80
2022-11-23T23:08:57.934Z,2.90
2022-11-23T23:11:27.972Z,3.50
2022-11-23T23:13:57.391Z,3.47
2022-11-23T23:16:25.762Z,2.93
2022-11-23T23:18:56.748Z,3.00
2022-11-23T23:21:26.210Z,3.20
2022-11-23T23:23:56.015Z,3.60
2022-11-23T23:26:25.053Z,2.50
2022-11-23T23:28:56.402Z,2.93
2022-11-23T23:31:24.082Z,3.77
2022-11-23T23:33:53.409Z,3.37
2022-11-23T23:36:22.932Z,2.60
2022-11-23T23:38:50.937Z,2.90
2022-11-23T23:41:18.185Z,3.33
2022-11-23T23:43:45.220Z,2.70
2022-11-23T23:46:13.776Z,2.97
2022-11-23T23:48:41.578Z,3.10
2022-11-23T23:51:12.495Z,2.90
2022-11-23T23:53:40.575Z,3.00
2022-11-23T23:56:12.935Z,3.10
2022-11-23T23:58:39.973Z,3.00
